Date,TemperatureHighF,TemperatureAvgF,TemperatureLowF,DewpointHighF,DewpointAvgF,DewpointLowF,HumidityHigh,HumidityAvg,HumidityLow,PressureMaxIn,PressureMinIn,WindSpeedMaxMPH,WindSpeedAvgMPH,GustSpeedMaxMPH,PrecipitationSumIn
2012-1-1,50.0,35.5,30.0,44.0,-36.8,-99.9,100,36,61,0.00,40.00,7,3,12,0.07
2012-1-2,45.0,33.6,31.0,44.0,-16.3,-99.9,100,39,38,0.00,40.00,12,6,24,0.10
2012-1-3,31.0,20.5,10.0,17.0,-2.3,-99.9,68,47,42,0.00,40.00,17,9,26,0.00
2012-1-4,25.0,14.6,7.0,6.0,-7.5,-99.9,75,47,28,0.00,40.00,9,6,17,0.00
2012-1-5,36.0,24.2,24.0,22.0,-3.7,-99.9,63,44,45,0.00,40.00,12,-23,20,0.00
2012-1-6,36.0,21.8,24.0,30.0,-7.1,-99.9,90,58,54,0.00,40.00,8,3,11,0.00
2012-1-7,44.0,29.8,26.0,37.0,2.0,-99.9,100,67,65,0.00,40.00,6,2,10,0.00
2012-1-8,40.0,31.1,27.0,32.0,11.2,-99.9,99,60,49,0.00,40.00,12,5,21,0.00
2012-1-9,36.0,26.0,23.0,19.0,3.3,-99.9,66,49,35,0.00,40.00,7,3,11,0.00
2012-1-10,44.0,32.7,30.0,29.0,13.3,-99.9,86,59,49,0.00,40.00,9,4,17,0.00
2012-1-11,35.0,27.1,26.0,28.0,2.9,-99.9,75,54,41,0.00,40.00,9,-10,14,0.00
2012-1-12,36.0,32.0,29.0,33.0,-45.0,-99.9,100,36,69,0.00,40.00,13,7,22,0.23
2012-1-13,42.0,30.6,28.0,40.0,-18.6,-99.9,100,53,57,0.00,40.00,18,6,37,0.03
2012-1-14,32.0,24.9,12.0,23.0,10.2,-99.9,74,59,45,0.00,40.00,16,10,27,0.00
2012-1-15,15.0,8.0,3.0,3.0,-6.9,-99.9,72,56,44,0.00,40.00,14,8,24,0.00
2012-1-16,29.0,16.6,6.0,26.0,-5.2,-99.9,91,49,34,0.00,40.00,7,4,15,0.00
2012-1-17,42.0,34.5,28.0,38.0,-24.2,-99.9,100,53,73,0.00,40.00,6,2,12,0.08
2012-1-18,44.0,31.6,17.0,44.0,-2.2,-99.9,100,42,34,0.00,40.00,19,12,35,0.00
2012-1-19,31.0,21.0,11.0,29.0,3.7,-99.9,100,61,44,0.00,40.00,9,4,15,0.02
2012-1-20,30.0,24.3,19.0,27.0,-34.0,-99.9,100,31,42,0.00,40.00,15,6,26,0.04
2012-1-21,19.0,16.4,13.0,16.0,8.0,-99.9,95,73,43,0.00,40.00,10,6,16,0.07
2012-1-22,28.0,17.6,7.0,19.0,6.2,-99.9,92,72,50,0.00,40.00,9,3,12,0.00
2012-1-23,45.0,31.8,24.0,34.0,-19.0,-99.9,100,54,78,0.00,40.00,9,2,15,0.05
2012-1-24,53.0,43.3,37.0,49.0,-31.4,-99.9,98,33,57,0.00,40.00,9,-24,17,0.00
2012-1-25,40.0,34.0,34.0,27.0,15.1,-99.9,70,57,51,0.00,40.00,13,-71,24,0.00
2012-1-26,40.0,32.5,30.0,33.0,1.4,-99.9,100,52,38,0.00,40.00,7,-39,14,0.04
2012-1-27,41.0,34.5,32.0,38.0,-88.6,-99.9,100,7,75,0.00,40.00,15,-51,26,0.59
2012-1-28,46.0,38.6,36.0,32.0,24.8,-99.9,75,62,40,0.00,40.00,16,-8,26,0.00
2012-1-29,42.0,35.0,31.0,30.0,10.9,-99.9,75,42,27,0.00,40.00,13,-28,30,0.00
2012-1-30,35.0,26.8,26.0,26.0,-1.2,-99.9,76,46,35,0.00,40.00,17,-35,31,0.00
2012-1-31,33.0,24.5,24.0,33.0,-7.2,-99.9,100,68,61,0.00,40.00,11,-38,14,0.09
2012-2-1,46.0,28.1,26.0,40.0,-30.2,-99.9,100,49,71,0.00,40.00,6,-48,12,0.06
2012-2-2,40.0,29.1,27.0,34.0,12.1,-99.9,94,69,65,0.00,40.00,8,-53,15,0.00
2012-2-3,35.0,25.4,23.0,19.0,-0.7,-99.9,70,48,28,0.00,40.00,12,-23,17,0.00
2012-2-4,35.0,26.1,25.0,26.0,-1.9,-99.9,80,47,32,0.00,40.00,17,-29,24,0.00
2012-2-5,36.0,20.6,16.0,15.0,-11.4,-99.9,75,42,29,0.00,40.00,7,-45,14,0.00
2012-2-6,51.0,33.4,27.0,26.0,5.8,-99.9,67,42,26,0.00,40.00,11,-8,21,0.00
2012-2-7,43.0,32.4,26.0,28.0,8.0,-99.9,75,48,38,0.00,40.00,16,6,25,0.00
2012-2-8,37.0,24.4,18.0,9.0,-6.3,-99.9,59,36,23,0.00,40.00,9,-3,14,0.00
2012-2-9,45.0,30.8,26.0,19.0,0.4,-99.9,72,37,24,0.00,40.00,9,3,16,0.00
2012-2-10,50.0,29.2,25.0,23.0,-5.1,-99.9,71,38,20,0.00,40.00,7,-4,17,0.00
2012-2-11,40.0,30.6,30.0,29.0,8.5,-99.9,83,59,50,0.00,40.00,19,-15,26,0.00
2012-2-12,29.0,16.9,12.0,15.0,0.2,-99.9,65,50,40,0.00,40.00,17,5,29,0.00
2012-2-13,39.0,26.0,12.0,18.0,8.0,-99.9,61,50,34,0.00,40.00,11,6,21,0.00
2012-2-14,41.0,30.0,23.0,28.0,11.9,-99.9,86,57,34,0.00,40.00,7,2,12,0.00
2012-2-15,40.0,32.9,29.0,32.0,22.8,-99.9,93,75,61,0.00,40.00,3,-13,5,0.03
2012-2-16,46.0,36.1,27.0,39.0,-14.6,-99.9,100,51,56,0.00,40.00,6,2,11,0.07
2012-2-17,49.0,39.7,33.0,43.0,-26.5,-99.9,100,32,42,0.00,40.00,9,-17,17,0.02
2012-2-18,44.0,36.0,30.0,26.0,18.3,-99.9,71,52,32,0.00,40.00,12,5,21,0.00
2012-2-19,41.0,33.7,29.0,26.0,16.8,-99.9,73,52,35,0.00,40.00,12,6,17,0.00
2012-2-20,40.0,29.7,22.0,19.0,11.1,-99.9,87,50,26,0.00,40.00,17,-1,28,0.00
2012-2-21,40.0,31.6,21.0,33.0,19.1,-99.9,100,65,35,0.00,40.00,9,3,17,0.08
2012-2-22,54.0,34.2,30.0,38.0,-42.4,-99.9,100,22,30,0.00,40.00,10,-34,21,0.00
2012-2-23,48.0,36.6,35.0,44.0,16.3,-99.9,100,63,39,0.00,40.00,17,4,30,0.04
2012-2-24,41.0,29.3,32.0,38.0,-22.9,-99.9,100,44,61,0.00,40.00,12,3,20,0.19
2012-2-25,40.0,31.5,30.0,35.0,-12.6,-99.9,100,40,46,0.00,40.00,22,12,38,0.00
2012-2-26,36.0,27.7,23.0,17.0,-0.9,-99.9,62,36,19,0.00,40.00,18,11,31,0.00
2012-2-27,43.0,28.7,20.0,35.0,8.1,-99.9,90,56,35,0.00,40.00,9,2,16,0.00
2012-2-28,39.0,33.5,29.0,30.0,12.0,-99.9,87,50,33,0.00,40.00,21,7,36,0.00
2012-2-29,33.0,27.7,27.0,31.0,-0.4,-99.9,100,60,50,0.00,40.00,5,2,10,0.08
2012-3-1,33.0,22.7,21.0,22.0,-89.0,-99.9,100,9,100,0.00,40.00,9,-2,22,0.21
2012-3-2,31.0,19.7,18.0,30.0,-1.4,-99.9,100,78,90,0.00,40.00,7,-53,13,0.00
2012-3-3,42.0,33.3,28.0,42.0,-83.7,-99.9,100,11,73,0.00,40.00,9,-46,12,0.21
2012-3-4,42.0,29.2,31.0,31.0,0.2,-99.9,94,49,38,0.00,40.00,7,-32,12,0.00
2012-3-5,33.0,26.3,21.0,24.0,4.3,-99.9,74,48,39,0.00,40.00,15,-13,22,0.00
2012-3-6,37.0,22.9,16.0,16.0,-6.9,-99.9,70,37,20,0.00,40.00,9,-38,15,0.00
2012-3-7,57.0,36.3,23.0,32.0,6.7,-99.9,77,43,31,0.00,40.00,8,-61,15,0.00
2012-3-8,69.0,44.6,46.0,47.0,10.2,-99.9,81,45,35,0.00,40.00,15,-13,30,0.00
2012-3-9,61.0,36.2,30.0,48.0,9.4,-99.9,76,45,28,0.00,40.00,17,8,29,0.00
2012-3-10,41.0,28.3,27.0,29.0,-12.4,-99.9,100,45,35,0.00,40.00,14,6,18,0.12
2012-3-11,58.0,38.9,30.0,32.0,9.1,-99.9,78,42,23,0.00,40.00,9,4,18,0.00
2012-3-12,68.0,42.9,35.0,38.0,17.0,-99.9,86,52,24,0.00,40.00,4,1,9,0.00
2012-3-13,72.0,42.4,44.0,51.0,13.9,-99.9,100,56,44,0.00,40.00,9,2,17,0.00
2012-3-14,48.0,36.0,35.0,47.0,-64.2,-99.9,100,26,100,0.00,40.00,7,2,12,0.04
2012-3-15,43.0,33.1,34.0,35.0,19.5,-99.9,100,75,61,0.00,40.00,6,-4,10,0.00
2012-3-16,42.0,30.8,36.0,41.0,-25.3,-99.9,100,46,73,0.00,40.00,6,-33,10,0.06
2012-3-17,56.0,38.4,35.0,44.0,-28.9,-99.9,100,39,55,0.00,40.00,5,2,9,0.00
2012-3-18,80.0,48.3,36.0,48.0,-18.4,-99.9,100,29,27,0.00,40.00,6,-4,13,0.00
2012-3-19,75.0,50.8,44.0,48.0,25.0,-99.9,100,63,35,0.00,40.00,11,2,20,0.00
2012-3-20,74.0,57.9,53.0,51.0,32.7,-99.9,89,52,41,0.00,40.00,5,2,9,0.00
2012-3-21,83.0,60.7,49.0,55.0,36.0,-99.9,100,55,19,0.00,40.00,7,3,14,0.00
2012-3-22,84.0,59.6,55.0,57.0,32.3,-99.9,100,53,26,0.00,40.00,9,-4,14,0.00
2012-3-23,69.0,56.7,53.0,52.0,22.3,-99.9,85,37,13,0.00,40.00,16,7,31,0.00
2012-3-24,53.0,42.0,46.0,38.0,12.4,-99.9,67,41,29,0.00,40.00,7,-4,12,0.00
2012-3-25,46.0,38.2,41.0,44.0,22.8,-99.9,100,76,54,0.00,40.00,6,-6,10,0.06
2012-3-26,45.0,32.5,31.0,44.0,-11.5,-99.9,100,42,33,0.00,40.00,26,11,40,0.03
2012-3-27,46.0,28.8,26.0,12.0,-16.2,-99.9,43,22,13,0.00,40.00,22,12,30,0.00
2012-3-28,47.0,40.0,34.0,37.0,23.9,-99.9,81,56,23,0.00,40.00,9,3,18,0.00
2012-3-29,43.0,38.8,37.0,38.0,31.5,-99.9,100,79,56,0.00,40.00,15,7,25,0.08
2012-3-30,45.0,38.7,35.0,29.0,17.8,-99.9,73,46,26,0.00,40.00,23,9,30,0.00
2012-3-31,45.0,38.2,31.0,29.0,23.9,15.0,90,57,39,0.00,40.00,6,2,12,0.00
2012-4-1,51.0,38.3,28.0,41.0,11.5,-99.9,100,62,33,0.00,40.00,9,-4,18,0.02
2012-4-2,51.0,39.3,36.0,41.0,13.1,-99.9,100,55,19,0.00,40.00,18,2,28,0.00
2012-4-3,56.0,41.3,30.0,29.0,10.9,-99.9,63,33,19,0.00,40.00,17,-32,26,0.00
2012-4-4,56.0,48.3,42.0,32.0,21.0,-99.9,63,36,21,0.00,40.00,18,7,32,0.00
2012-4-5,49.0,41.9,38.0,33.0,23.8,-99.9,74,51,33,0.00,40.00,17,8,26,0.00
2012-4-6,50.0,40.6,30.0,26.0,19.0,-99.9,73,45,23,0.00,40.00,14,6,21,0.00
2012-4-7,48.0,40.5,32.0,31.0,21.8,-99.9,69,49,29,0.00,40.00,12,4,19,0.00
2012-4-8,47.0,38.7,38.0,32.0,14.0,-99.9,74,48,36,0.00,40.00,17,-3,24,0.00
2012-4-9,53.0,45.3,37.0,35.0,29.9,-99.9,81,58,41,0.00,40.00,13,-1,26,0.00
2012-4-10,58.0,47.3,42.0,34.0,23.8,-99.9,59,44,31,0.00,40.00,10,5,22,0.00
2012-4-11,57.0,43.2,37.0,43.0,30.5,-99.9,90,66,36,0.00,40.00,9,2,17,0.07
2012-4-12,54.0,45.3,41.0,43.0,35.1,-99.9,100,73,42,0.00,40.00,16,6,23,0.07
2012-4-13,62.0,48.0,36.0,42.0,12.8,-99.9,100,46,16,0.00,40.00,14,4,22,0.00
2012-4-14,70.0,54.3,44.0,40.0,29.0,18.0,76,42,14,0.00,40.00,7,3,18,0.00
2012-4-15,78.0,57.5,45.0,52.0,35.8,-99.9,90,55,31,0.00,40.00,9,3,18,0.00
2012-4-16,82.0,70.1,59.0,60.0,52.8,-99.9,82,57,36,0.00,40.00,12,4,19,0.00
2012-4-17,81.0,65.3,53.0,55.0,37.5,-99.9,100,47,12,0.00,40.00,17,5,26,0.00
2012-4-18,61.0,50.3,44.0,38.0,30.2,-99.9,74,49,25,0.00,40.00,12,5,22,0.00
2012-4-19,58.0,46.4,39.0,47.0,34.9,-99.9,100,74,55,0.00,40.00,9,3,17,0.00
2012-4-20,76.0,53.5,42.0,49.0,3.3,-99.9,100,39,26,0.00,40.00,16,5,27,0.00
2012-4-21,74.0,61.4,53.0,55.0,47.3,-99.9,86,64,46,0.00,40.00,10,5,19,0.00
2012-4-22,59.0,48.2,42.0,58.0,19.9,-99.9,100,80,80,0.00,40.00,14,5,21,0.27
2012-4-23,55.0,47.6,40.0,51.0,-83.6,-99.9,100,11,93,0.00,40.00,11,5,23,0.92
2012-4-24,58.0,50.5,46.0,49.0,33.0,-99.9,100,60,29,0.00,40.00,14,6,26,0.00
2012-4-25,61.0,50.2,42.0,41.0,31.9,-99.9,93,55,26,0.00,40.00,11,5,24,0.00
2012-4-26,59.0,48.1,39.0,49.0,34.5,-99.9,100,64,33,0.00,40.00,11,5,18,0.04
2012-4-27,52.0,46.3,39.0,51.0,3.4,-99.9,100,46,41,0.00,40.00,19,11,33,0.03
2012-4-28,54.0,43.2,35.0,25.0,19.7,12.0,63,41,19,0.00,40.00,18,10,30,0.00
2012-4-29,53.0,43.3,39.0,22.0,8.4,-99.9,47,29,14,0.00,40.00,21,8,33,0.00
2012-4-30,58.0,45.3,33.0,38.0,21.1,-99.9,70,43,25,0.00,40.00,10,3,16,0.00
2012-5-1,49.0,43.7,43.0,46.0,-22.1,-99.9,100,46,60,0.00,40.00,9,4,18,0.24
2012-5-2,52.0,45.7,32.0,48.0,-18.4,-99.9,100,48,71,0.00,40.00,7,3,10,0.00
2012-5-3,52.0,46.4,45.0,49.0,-3.4,-99.9,100,61,80,0.00,40.00,6,2,11,0.12
2012-5-4,55.0,47.8,47.0,55.0,-71.2,-99.9,100,19,99,0.00,40.00,4,2,9,0.06
2012-5-5,61.0,47.4,47.0,53.0,-27.4,-99.9,100,40,73,0.00,40.00,6,2,12,0.00
2012-5-6,58.0,48.5,44.0,48.0,-12.1,-99.9,99,38,45,0.00,40.00,7,3,13,0.00
2012-5-7,65.0,54.0,43.0,46.0,38.1,26.0,100,61,22,0.00,40.00,7,3,17,0.00
2012-5-8,53.0,49.2,48.0,51.0,7.9,-99.9,100,64,64,0.00,40.00,9,3,19,0.29
2012-5-9,59.0,52.2,52.0,-99.9,-99.9,-99.9,0,0,100,0.00,40.00,7,-6,9,0.08
2012-5-10,64.0,50.6,50.0,55.0,-19.7,-99.9,100,41,56,0.00,40.00,16,5,29,0.30
2012-5-11,63.0,52.1,45.0,45.0,34.6,-99.9,89,57,31,0.00,40.00,17,6,30,0.00
2012-5-12,76.0,56.3,39.0,48.0,30.2,-99.9,100,50,18,0.00,40.00,12,4,24,0.00
2012-5-13,78.0,60.2,49.0,53.0,42.0,-99.9,86,59,34,0.00,40.00,9,3,21,0.00
2012-5-14,60.0,53.0,52.0,57.0,41.4,-99.9,100,81,74,0.00,40.00,7,2,11,0.04
2012-5-15,71.0,59.9,52.0,61.0,-24.4,-99.9,100,36,55,0.00,40.00,12,3,21,0.18
2012-5-16,69.0,54.2,56.0,66.0,-46.5,-99.9,100,31,85,0.00,40.00,4,-6,10,0.03
2012-5-17,67.0,56.3,47.0,59.0,15.7,-99.9,100,44,23,0.00,40.00,19,7,28,0.01
2012-5-18,68.0,54.8,44.0,47.0,30.8,-99.9,100,55,28,0.00,40.00,9,3,17,0.00
2012-5-19,73.0,58.0,44.0,51.0,31.1,-99.9,100,56,31,0.00,40.00,6,-5,12,0.00
2012-5-20,77.0,61.3,50.0,54.0,25.7,-99.9,100,51,28,0.00,40.00,9,2,16,0.00
2012-5-21,70.0,58.4,49.0,60.0,-1.0,-99.9,100,51,53,0.00,40.00,7,2,12,0.00
2012-5-22,67.0,56.8,57.0,66.0,-77.7,-99.9,100,13,86,0.00,40.00,5,1,11,0.18
2012-5-23,78.0,59.1,60.0,65.0,-13.1,-99.9,100,42,59,0.00,40.00,6,1,11,0.01
2012-5-24,69.0,60.4,57.0,63.0,-33.9,-99.9,100,35,75,0.00,40.00,7,2,14,0.00
2012-5-25,67.0,59.7,57.0,65.0,-40.2,-99.9,100,35,80,0.00,40.00,7,2,13,0.00
2012-5-26,86.0,71.4,63.0,69.0,10.0,-99.9,100,41,28,0.00,40.00,12,2,16,0.00
2012-5-27,71.0,60.8,57.0,61.0,40.7,-99.9,92,59,29,0.00,40.00,7,3,13,0.00
2012-5-28,73.0,62.0,57.0,56.0,50.6,-99.9,91,71,46,0.00,40.00,7,3,13,0.00
2012-5-29,62.0,54.7,58.0,62.0,-54.6,-99.9,100,26,83,0.00,40.00,9,2,15,0.04
2012-5-30,76.0,56.5,58.0,68.0,-26.8,-99.9,100,34,51,0.00,40.00,4,1,9,0.00
2012-5-31,82.0,63.0,60.0,63.0,41.1,-99.9,100,63,27,0.00,40.00,7,2,14,0.00
2012-6-1,70.0,57.3,57.0,60.0,33.0,-99.9,100,50,31,0.00,40.00,10,4,14,0.00
2012-6-2,58.0,50.1,54.0,56.0,-37.0,-99.9,100,35,72,0.00,40.00,10,6,22,0.77
2012-6-3,58.0,47.0,52.0,56.0,-61.4,-99.9,100,25,100,0.00,40.00,13,0,28,0.10
2012-6-4,53.0,42.3,49.0,53.0,-44.4,-99.9,100,36,89,0.00,40.00,10,5,21,0.24
2012-6-5,57.0,47.2,49.0,53.0,-6.3,-99.9,100,55,72,0.00,40.00,9,4,18,0.03
2012-6-6,65.0,50.8,50.0,54.0,-19.0,-99.9,100,40,56,0.00,40.00,6,2,14,0.00
2012-6-7,65.0,51.5,49.0,58.0,-5.5,-99.9,100,54,72,0.00,40.00,6,1,12,0.01
2012-6-8,76.0,54.4,55.0,60.0,-1.0,-99.9,100,48,49,0.00,40.00,16,3,32,0.01
2012-6-9,77.0,60.8,54.0,58.0,8.9,-99.9,100,40,28,0.00,40.00,12,-3,21,0.00
2012-6-10,80.0,58.7,51.0,56.0,20.5,-99.9,100,53,26,0.00,40.00,7,2,14,0.00
2012-6-11,69.0,56.8,53.0,58.0,17.0,-99.9,100,55,53,0.00,40.00,9,3,14,0.00
2012-6-12,75.0,59.2,59.0,60.0,37.2,-99.9,82,59,49,0.00,40.00,12,4,19,0.00
2012-6-13,65.0,55.0,60.0,63.0,-95.4,-99.9,100,3,85,0.00,40.00,5,2,11,0.22
2012-6-14,76.0,58.3,56.0,60.0,-5.0,-99.9,100,38,33,0.00,40.00,9,3,17,0.00
2012-6-15,73.0,57.0,51.0,56.0,13.0,-99.9,100,46,43,0.00,40.00,9,3,15,0.00
2012-6-16,63.0,49.9,51.0,57.0,2.7,-99.9,100,55,68,0.00,40.00,6,-5,14,0.00
2012-6-17,66.0,50.9,47.0,53.0,-9.9,-99.9,100,42,57,0.00,40.00,8,3,15,0.00
2012-6-18,67.0,52.8,52.0,57.0,33.6,-99.9,100,68,54,0.00,40.00,7,2,13,0.00
2012-6-19,78.0,60.5,53.0,64.0,2.6,-99.9,100,47,55,0.00,40.00,6,-5,12,0.23
2012-6-20,94.0,73.6,65.0,73.0,53.4,-99.9,100,63,31,0.00,40.00,9,2,17,0.00
2012-6-21,94.0,71.3,71.0,74.0,41.4,-99.9,100,55,36,0.00,40.00,12,-5,17,0.00
2012-6-22,94.0,60.0,64.0,70.0,-11.7,-99.9,100,37,37,0.00,40.00,6,1,11,0.01
2012-6-23,82.0,64.0,61.0,72.0,-47.3,-99.9,100,22,53,0.00,40.00,18,2,32,1.16
2012-6-24,85.0,69.8,58.0,63.0,9.1,-99.9,100,36,26,0.00,40.00,14,2,22,0.00
2012-6-25,74.0,61.5,63.0,68.0,3.1,-99.9,100,50,64,0.00,40.00,11,2,24,0.22
2012-6-26,67.0,58.0,60.0,64.0,-18.1,-99.9,100,44,74,0.00,40.00,12,4,19,0.03
2012-6-27,72.0,60.3,59.0,58.0,42.6,-99.9,84,65,54,0.00,40.00,13,6,23,0.01
2012-6-28,83.0,65.2,63.0,63.0,43.9,-99.9,100,58,40,0.00,40.00,14,4,19,0.00
2012-6-29,87.0,55.4,60.0,71.0,-10.8,-99.9,100,40,43,0.00,40.00,6,2,12,0.00
2012-6-30,89.0,71.8,61.0,61.0,42.6,-99.9,91,44,29,0.00,40.00,9,-6,18,0.00
2012-7-1,90.0,70.4,65.0,66.0,46.1,-99.9,100,55,27,0.00,40.00,14,-5,19,0.00
2012-7-2,84.0,67.9,62.0,68.0,44.7,-99.9,100,64,42,0.00,40.00,6,-6,12,0.00
2012-7-3,83.0,61.6,60.0,63.0,5.0,-99.9,100,39,31,0.00,40.00,14,3,21,0.00
2012-7-4,87.0,62.7,61.0,71.0,6.6,-99.9,100,50,48,0.00,40.00,7,1,12,0.07
2012-7-5,81.0,66.2,64.0,70.0,8.8,-99.9,100,45,51,0.00,40.00,11,2,17,0.00
2012-7-6,86.0,65.0,63.0,67.0,20.4,-99.9,100,51,48,0.00,40.00,6,2,13,0.00
2012-7-7,82.0,66.1,67.0,71.0,50.2,-99.9,100,74,54,0.00,40.00,4,-6,11,0.01
2012-7-8,83.0,64.7,63.0,67.0,23.4,-99.9,100,46,32,0.00,40.00,12,4,21,0.00
2012-7-9,81.0,62.9,57.0,56.0,35.9,-99.9,92,49,30,0.00,40.00,10,3,20,0.00
2012-7-10,85.0,63.7,53.0,56.0,37.7,-99.9,100,51,25,0.00,40.00,9,2,16,0.00
2012-7-11,84.0,67.2,59.0,64.0,39.4,-99.9,100,55,27,0.00,40.00,7,2,14,0.00
2012-7-12,87.0,68.0,61.0,66.0,19.7,-99.9,100,47,36,0.00,40.00,11,2,17,0.00
2012-7-13,92.0,72.9,65.0,68.0,51.3,-99.9,100,61,39,0.00,40.00,7,2,14,0.00
2012-7-14,94.0,70.0,69.0,70.0,49.0,-99.9,100,62,33,0.00,40.00,5,-6,12,0.00
2012-7-15,89.0,68.5,67.0,72.0,7.7,-99.9,100,45,38,0.00,40.00,6,1,11,0.01
2012-7-16,87.0,67.4,68.0,73.0,1.3,-99.9,100,46,48,0.00,40.00,9,2,14,0.00
2012-7-17,93.0,69.9,67.0,72.0,0.4,-99.9,100,38,39,0.00,40.00,21,2,35,0.00
2012-7-18,88.0,73.1,70.0,74.0,25.9,-99.9,100,54,50,0.00,40.00,9,2,14,0.00
2012-7-19,77.0,63.1,62.0,63.0,44.1,-99.9,100,63,45,0.00,40.00,7,2,13,0.00
2012-7-20,75.0,61.5,59.0,62.0,23.1,-99.9,100,53,42,0.00,40.00,5,2,9,0.00
2012-7-21,80.0,63.6,55.0,60.0,6.1,-99.9,100,37,30,0.00,40.00,8,2,16,0.00
2012-7-22,88.0,67.9,59.0,61.0,47.0,-99.9,100,58,33,0.00,40.00,10,-4,19,0.00
2012-7-23,88.0,65.8,65.0,70.0,42.7,-99.9,96,60,46,0.00,40.00,7,-11,14,0.00
2012-7-24,86.0,63.8,67.0,73.0,28.6,-99.9,100,58,53,0.00,40.00,20,3,35,0.45
2012-7-25,80.0,62.4,61.0,57.0,37.4,-99.9,84,52,33,0.00,40.00,15,5,24,0.00
2012-7-26,78.0,58.8,62.0,67.0,35.5,-99.9,100,65,59,0.00,40.00,4,0,9,0.01
2012-7-27,79.0,60.3,63.0,69.0,-37.9,-99.9,100,32,64,0.00,40.00,7,1,12,1.04
2012-7-28,77.0,62.0,63.0,68.0,-29.9,-99.9,100,33,66,0.00,40.00,6,1,13,0.04
2012-7-29,70.0,61.0,62.0,69.0,-32.0,-99.9,100,36,76,0.00,40.00,7,1,9,0.00
2012-7-30,83.0,60.7,58.0,67.0,0.4,-99.9,100,43,47,0.00,40.00,9,2,16,0.00
2012-7-31,78.0,61.9,61.0,68.0,24.4,-99.9,100,61,48,0.00,40.00,7,3,15,0.03
2012-8-1,79.0,63.9,65.0,72.0,-37.5,-99.9,100,30,65,0.00,40.00,7,2,16,0.22
2012-8-2,81.0,66.4,66.0,73.0,-16.2,-99.9,100,39,69,0.00,40.00,6,2,12,0.00
2012-8-3,94.0,70.2,65.0,75.0,3.8,-99.9,100,38,35,0.00,40.00,4,1,9,0.00
2012-8-4,86.0,69.1,68.0,72.0,12.9,-99.9,100,49,45,0.00,40.00,4,1,10,0.00
2012-8-5,88.0,67.2,67.0,76.0,-29.8,-99.9,100,30,57,0.00,40.00,14,-5,39,0.08
2012-8-6,82.0,69.2,64.0,74.0,27.8,-99.9,100,51,41,0.00,40.00,11,4,17,0.00
2012-8-7,80.0,61.3,58.0,65.0,27.0,-99.9,100,58,45,0.00,40.00,7,2,14,0.00
2012-8-8,90.0,65.0,61.0,70.0,3.5,-99.9,100,42,35,0.00,40.00,7,1,14,0.00
2012-8-9,84.0,63.6,65.0,71.0,0.9,-99.9,100,43,46,0.00,40.00,9,2,15,0.00
2012-8-10,78.0,64.5,68.0,74.0,-20.6,-99.9,100,43,81,0.00,40.00,7,3,21,0.30
2012-8-11,82.0,66.2,69.0,71.0,-20.2,-99.9,100,38,63,0.00,40.00,9,2,14,0.03
2012-8-12,82.0,65.1,69.0,76.0,-37.4,-99.9,100,31,70,0.00,40.00,6,-6,13,0.03
2012-8-13,87.0,62.0,66.0,69.0,-9.3,-99.9,100,36,43,0.00,40.00,4,-13,9,0.00
2012-8-14,86.0,66.9,64.0,69.0,23.0,-99.9,100,54,45,0.00,40.00,6,1,11,0.00
2012-8-15,81.0,65.4,66.0,71.0,4.1,-99.9,100,54,59,0.00,40.00,5,-6,12,0.01
2012-8-16,81.0,59.1,64.0,69.0,-23.8,-99.9,100,35,56,0.00,40.00,11,2,15,0.48
2012-8-17,85.0,65.5,61.0,70.0,-2.1,-99.9,100,37,41,0.00,40.00,7,-12,14,0.04
2012-8-18,78.0,59.9,63.0,68.0,3.8,-99.9,100,52,56,0.00,40.00,6,2,11,0.01
2012-8-19,77.0,58.2,59.0,63.0,32.5,-99.9,100,59,41,0.00,40.00,9,3,11,0.00
2012-8-20,81.0,59.7,58.0,62.0,19.0,-99.9,100,52,36,0.00,40.00,6,2,12,0.00
2012-8-21,82.0,62.2,61.0,66.0,4.0,-99.9,100,47,40,0.00,40.00,6,1,12,0.01
2012-8-22,83.0,60.5,57.0,62.0,20.2,-99.9,100,49,30,0.00,40.00,7,-5,15,0.00
2012-8-23,87.0,62.8,58.0,69.0,22.7,-99.9,100,53,37,0.00,40.00,7,2,13,0.00
2012-8-24,83.0,63.8,62.0,67.0,-5.6,-99.9,100,38,45,0.00,40.00,6,2,11,0.00
2012-8-25,80.0,65.5,64.0,70.0,-6.8,-99.9,100,40,47,0.00,40.00,6,2,12,0.00
2012-8-26,82.0,64.7,59.0,64.0,7.1,-99.9,100,43,45,0.00,40.00,7,2,12,0.00
2012-8-27,86.0,61.6,60.0,68.0,1.1,-99.9,100,39,32,0.00,40.00,9,3,15,0.00
2012-8-28,84.0,61.2,67.0,72.0,22.5,-99.9,100,56,47,0.00,40.00,15,4,31,0.04
2012-8-29,77.0,57.5,56.0,57.0,31.5,-99.9,91,53,31,0.00,40.00,9,3,15,0.00
2012-8-30,82.0,59.3,54.0,55.0,30.2,-99.9,98,50,28,0.00,40.00,7,3,16,0.00
2012-8-31,87.0,68.3,59.0,64.0,44.0,-99.9,89,51,32,0.00,40.00,7,2,14,0.00
2012-9-1,76.0,61.4,60.0,67.0,24.6,-99.9,100,54,41,0.00,40.00,6,2,12,0.00
2012-9-2,72.0,54.8,59.0,62.0,-5.1,-99.9,100,50,63,0.00,40.00,6,2,12,0.00
2012-9-3,74.0,57.7,58.0,62.0,-6.8,-99.9,100,44,54,0.00,40.00,7,3,14,0.00
2012-9-4,66.0,56.3,56.0,61.0,-48.5,-99.9,100,32,87,0.00,40.00,2,0,7,0.11
2012-9-5,80.0,67.1,65.0,76.0,-24.0,-99.9,100,36,61,0.00,40.00,12,3,17,0.04
2012-9-6,80.0,62.7,65.0,68.0,-10.2,-99.9,100,42,56,0.00,40.00,4,1,8,0.00
2012-9-7,88.0,66.6,62.0,69.0,-19.9,-99.9,100,29,27,0.00,40.00,4,-7,9,0.00
2012-9-8,82.0,63.9,64.0,73.0,7.6,-99.9,100,52,58,0.00,40.00,12,5,22,0.00
2012-9-9,75.0,58.2,58.0,63.0,9.4,-99.9,100,53,41,0.00,40.00,9,2,14,0.00
2012-9-10,66.0,51.0,54.0,57.0,15.3,-99.9,100,53,48,0.00,40.00,18,7,27,0.00
2012-9-11,76.0,54.6,48.0,54.0,31.7,-99.9,100,56,27,0.00,40.00,7,2,10,0.00
2012-9-12,77.0,52.6,49.0,57.0,4.7,-99.9,100,48,38,0.00,40.00,6,1,12,0.00
2012-9-13,84.0,58.5,53.0,62.0,-12.0,-99.9,100,35,33,0.00,40.00,6,-6,10,0.00
2012-9-14,79.0,61.3,59.0,63.0,-2.4,-99.9,100,43,54,0.00,40.00,7,2,14,0.00
2012-9-15,70.0,58.2,55.0,63.0,24.6,-99.9,100,55,39,0.00,40.00,17,6,26,0.00
2012-9-16,67.0,50.3,48.0,49.0,26.9,-99.9,100,57,33,0.00,40.00,13,4,24,0.00
2012-9-17,73.0,49.3,44.0,57.0,11.2,-99.9,100,54,37,0.00,40.00,6,2,11,0.00
2012-9-18,70.0,54.3,51.0,66.0,-10.8,-99.9,97,45,66,0.00,40.00,12,5,24,0.00
2012-9-19,71.0,54.2,52.0,66.0,-0.2,-99.9,98,40,32,0.00,40.00,16,6,24,0.04
2012-9-20,64.0,48.5,45.0,49.0,22.2,-99.9,100,58,38,0.00,40.00,7,3,11,0.00
2012-9-21,63.0,47.5,45.0,56.0,-6.8,-99.9,100,53,64,0.00,40.00,6,-5,11,0.00
2012-9-22,68.0,54.8,53.0,61.0,-24.9,-99.9,100,42,71,0.00,40.00,9,3,11,0.03
2012-9-23,69.0,51.6,49.0,62.0,-2.9,-99.9,100,41,34,0.00,40.00,11,4,20,0.03
2012-9-24,67.0,45.5,44.0,48.0,17.9,-99.9,100,58,30,0.00,40.00,9,2,13,0.00
2012-9-25,73.0,50.6,42.0,50.0,19.7,-99.9,100,53,30,0.00,40.00,9,3,18,0.00
2012-9-26,74.0,55.6,59.0,61.0,35.5,-99.9,93,68,62,0.00,40.00,7,-3,17,0.00
2012-9-27,67.0,52.7,48.0,63.0,5.9,-99.9,100,49,35,0.00,40.00,13,3,19,0.00
2012-9-28,54.0,43.1,45.0,50.0,-49.3,-99.9,100,33,86,0.00,40.00,6,3,12,0.20
2012-9-29,56.0,43.9,50.0,55.0,-58.3,-99.9,100,26,88,0.00,40.00,11,6,16,0.00
2012-9-30,59.0,49.9,52.0,58.0,-87.9,-99.9,100,8,95,0.00,40.00,7,3,12,0.08
2012-10-1,67.0,50.3,50.0,55.0,27.2,-99.9,100,71,60,0.00,40.00,10,5,21,0.01
2012-10-2,72.0,50.8,54.0,60.0,25.4,-99.9,100,68,52,0.00,40.00,6,1,12,0.00
2012-10-3,63.0,57.0,58.0,60.0,-79.8,-99.9,100,13,100,0.00,40.00,4,0,7,0.09
2012-10-4,60.0,46.4,58.0,-99.9,-99.9,-99.9,0,0,100,0.00,40.00,4,1,9,0.04
2012-10-5,77.0,44.8,57.0,62.0,-42.4,-99.9,100,27,42,0.00,40.00,2,0,6,0.00
2012-10-6,78.0,52.2,53.0,64.0,-17.1,-99.9,100,36,50,0.00,40.00,14,3,26,0.00
2012-10-7,59.0,45.4,43.0,49.0,23.9,-99.9,100,63,48,0.00,40.00,4,1,11,0.03
2012-10-8,57.0,41.4,42.0,48.0,-17.3,-99.9,100,45,53,0.00,40.00,6,2,9,0.00
2012-10-9,57.0,42.1,45.0,49.0,20.3,-99.9,100,71,65,0.00,40.00,7,-4,12,0.00
2012-10-10,59.0,45.7,47.0,54.0,-54.0,-99.9,100,29,90,0.00,40.00,7,3,17,0.04
2012-10-11,57.0,42.9,45.0,53.0,15.7,-99.9,95,51,34,0.00,40.00,11,5,22,0.00
2012-10-12,51.0,44.1,39.0,43.0,27.3,-99.9,86,59,36,0.00,40.00,22,8,29,0.00
2012-10-13,53.0,40.8,32.0,32.0,23.0,-99.9,80,55,31,0.00,40.00,11,4,19,0.00
2012-10-14,58.0,48.0,42.0,54.0,-7.0,-99.9,100,55,51,0.00,40.00,7,2,16,0.01
2012-10-15,74.0,59.1,50.0,63.0,-9.5,-99.9,100,45,61,0.00,40.00,7,2,14,0.00
2012-10-16,61.0,50.2,43.0,56.0,2.0,-99.9,100,47,48,0.00,40.00,19,7,35,0.00
2012-10-17,61.0,40.1,35.0,43.0,12.1,-99.9,100,58,31,0.00,40.00,4,1,10,0.04
2012-10-18,62.0,44.0,41.0,53.0,-25.2,-99.9,100,39,44,0.00,40.00,7,2,14,0.00
2012-10-19,63.0,49.9,45.0,59.0,-59.2,-99.9,100,23,85,0.00,40.00,13,4,29,0.17
2012-10-20,74.0,58.6,54.0,67.0,-38.9,-99.9,100,31,45,0.00,40.00,5,1,12,0.12
2012-10-21,62.0,52.1,47.0,49.0,34.9,-99.9,80,59,40,0.00,40.00,9,5,19,0.00
2012-10-22,62.0,51.3,47.0,45.0,31.8,-99.9,83,56,41,0.00,40.00,18,7,27,0.00
2012-10-23,60.0,48.6,43.0,45.0,30.9,-99.9,100,62,41,0.00,40.00,8,3,13,0.00
2012-10-24,60.0,42.4,36.0,42.0,17.8,-99.9,100,61,30,0.00,40.00,6,1,9,0.00
2012-10-25,57.0,45.2,38.0,47.0,0.5,-99.9,100,58,65,0.00,40.00,7,2,14,0.00
2012-10-26,65.0,47.9,41.0,53.0,-19.9,-99.9,100,44,63,0.00,40.00,4,1,9,0.00
2012-10-27,64.0,48.2,44.0,53.0,-43.1,-99.9,100,30,64,0.00,40.00,6,2,11,0.00
2012-10-28,53.0,48.6,49.0,52.0,12.1,-99.9,100,68,74,0.00,40.00,6,3,18,0.01
2012-10-29,60.0,49.5,50.0,59.0,-98.8,-99.9,100,1,100,0.00,40.00,23,10,44,0.31
2012-10-30,64.0,45.7,58.0,62.0,-41.3,-99.9,100,35,85,0.00,40.00,14,5,30,0.35
2012-10-31,61.0,49.2,50.0,58.0,-6.9,-99.9,100,49,63,0.00,40.00,7,3,14,0.00
2012-11-1,56.0,39.3,45.0,44.0,10.8,-99.9,87,56,50,0.00,40.00,7,2,13,0.00
2012-11-2,53.0,44.1,44.0,42.0,27.3,-99.9,88,65,52,0.00,40.00,8,4,13,0.01
2012-11-3,51.0,43.5,42.0,41.0,27.7,-99.9,90,63,50,0.00,40.00,12,7,22,0.00
2012-11-4,50.0,39.9,39.0,36.0,19.8,-99.9,72,57,49,0.00,40.00,12,7,23,0.00
2012-11-5,41.0,35.3,32.0,30.0,18.0,-99.9,77,58,43,0.00,40.00,12,6,21,0.00
2012-11-6,43.0,32.7,27.0,28.0,17.3,-99.9,85,59,29,0.00,40.00,6,2,11,0.03
2012-11-7,38.0,29.4,31.0,32.0,-1.2,-99.9,100,46,38,0.00,40.00,17,1,29,0.03
2012-11-8,41.0,35.1,32.0,40.0,-16.4,-99.9,100,59,83,0.00,40.00,21,15,39,0.14
2012-11-9,51.0,42.5,38.0,36.0,26.9,-99.9,87,59,31,0.00,40.00,15,8,22,0.00
2012-11-10,52.0,38.1,34.0,36.0,18.1,-99.9,100,61,31,0.00,40.00,14,3,18,0.00
2012-11-11,58.0,43.3,36.0,47.0,9.8,-99.9,100,64,65,0.00,40.00,6,1,11,0.00
2012-11-12,68.0,49.5,38.0,58.0,-12.5,-99.9,100,40,42,0.00,40.00,7,3,14,0.00
2012-11-13,64.0,47.9,55.0,61.0,42.5,-99.9,100,87,83,0.00,40.00,10,5,23,0.00
2012-11-14,45.0,32.2,35.0,26.0,3.7,-99.9,69,47,39,0.00,40.00,9,4,13,0.00
2012-11-15,44.0,32.1,32.0,34.0,14.0,-99.9,95,65,48,0.00,40.00,11,5,20,0.00
2012-11-16,46.0,32.1,32.0,34.0,13.4,-99.9,100,67,48,0.00,40.00,7,3,9,0.00
2012-11-17,49.0,33.2,28.0,34.0,-1.1,-99.9,100,57,44,0.00,40.00,4,1,7,0.00
2012-11-18,47.0,31.6,29.0,32.0,-0.9,-99.9,100,54,26,0.00,40.00,6,3,11,0.00
2012-11-19,49.0,32.3,28.0,38.0,-8.0,-99.9,100,51,51,0.00,40.00,6,3,9,0.00
2012-11-20,49.0,31.1,29.0,32.0,-28.8,-99.9,100,34,28,0.00,40.00,6,2,9,0.00
2012-11-21,50.0,35.9,35.0,39.0,15.7,-99.9,94,64,60,0.00,40.00,9,3,13,0.00
2012-11-22,56.0,36.3,33.0,43.0,-23.5,-99.9,100,47,54,0.00,40.00,4,1,7,0.00
2012-11-23,55.0,37.6,33.0,49.0,-44.1,-99.9,100,35,63,0.00,40.00,8,2,12,0.00
2012-11-24,45.0,36.9,33.0,45.0,-16.8,-99.9,100,37,37,0.00,40.00,15,7,27,0.03
2012-11-25,37.0,29.1,31.0,22.0,0.8,-99.9,67,44,29,0.00,40.00,13,8,26,0.00
2012-11-26,44.0,29.8,26.0,27.0,6.0,-99.9,88,56,37,0.00,40.00,12,4,21,0.00
2012-11-27,36.0,26.7,25.0,35.0,-13.8,-99.9,100,58,68,0.00,40.00,9,2,12,0.30
2012-11-28,35.0,27.3,25.0,26.0,7.7,-99.9,92,63,57,0.00,40.00,11,5,17,0.01
2012-11-29,43.0,32.6,25.0,27.0,12.9,-99.9,90,55,36,0.00,40.00,15,6,26,0.00
2012-11-30,36.0,25.2,26.0,26.0,-5.9,-99.9,70,37,27,0.00,40.00,16,6,22,0.03
2012-12-1,27.0,23.2,23.0,26.0,8.4,-99.9,100,71,35,0.00,40.00,9,6,15,0.01
2012-12-2,47.0,30.0,26.0,47.0,-86.3,-99.9,100,10,100,0.00,40.00,6,3,14,0.07
2012-12-3,54.0,40.2,33.0,48.0,-38.3,-99.9,100,31,52,0.00,40.00,14,4,22,0.00
2012-12-4,56.0,34.3,32.0,55.0,-31.1,-99.9,100,49,93,0.00,40.00,6,1,12,0.01
2012-12-5,58.0,44.6,32.0,56.0,27.3,-99.9,100,65,48,0.00,40.00,19,9,34,0.00
2012-12-6,41.0,28.0,25.0,24.0,2.5,-99.9,88,51,35,0.00,40.00,10,4,16,0.00
2012-12-7,43.0,29.1,23.0,39.0,-8.1,-99.9,100,59,62,0.00,40.00,4,1,10,0.04
2012-12-8,40.0,35.6,37.0,-99.9,-99.9,-99.9,0,0,100,0.00,40.00,9,3,12,0.02
2012-12-9,46.0,35.6,35.0,39.0,-18.8,-99.9,100,47,46,0.00,40.00,9,2,12,0.00
2012-12-10,45.0,36.2,38.0,43.0,-80.2,-99.9,100,13,84,0.00,40.00,11,3,20,0.12
2012-12-11,45.0,37.6,34.0,43.0,-26.5,-99.9,100,39,56,0.00,40.00,12,5,21,0.01
2012-12-12,40.0,28.6,27.0,25.0,8.0,-99.9,91,59,44,0.00,40.00,7,2,11,0.00
2012-12-13,44.0,28.3,25.0,28.0,6.0,-99.9,100,67,40,0.00,40.00,5,1,7,0.00
2012-12-14,46.0,31.6,26.0,28.0,10.4,-99.9,100,61,36,0.00,40.00,8,3,16,0.00
2012-12-15,41.0,30.0,25.0,30.0,5.0,-99.9,68,48,33,0.00,40.00,11,4,14,0.00
2012-12-16,25.0,20.0,22.0,23.0,-31.2,-99.9,100,42,54,0.00,40.00,8,5,13,0.01
2012-12-17,34.0,25.5,24.0,-99.9,-99.9,-99.9,0,0,100,0.00,40.00,9,5,14,0.05
2012-12-18,49.0,37.4,33.0,-99.9,-99.9,-99.9,0,0,100,0.00,40.00,11,5,21,0.34
2012-12-19,42.0,34.6,36.0,39.0,-3.2,-99.9,100,64,72,0.00,40.00,21,10,27,0.06
2012-12-20,39.0,32.4,32.0,36.0,-9.7,-99.9,100,58,65,0.00,40.00,6,2,9,0.03
2012-12-21,52.0,40.8,35.0,52.0,-24.4,-99.9,100,46,71,0.00,40.00,17,7,34,0.09
2012-12-22,40.0,31.7,28.0,34.0,14.5,-99.9,84,62,52,0.00,40.00,13,8,27,0.00
2012-12-23,38.0,28.2,25.0,24.0,6.4,-99.9,73,52,38,0.00,40.00,12,6,22,0.00
2012-12-24,37.0,27.0,28.0,25.0,0.3,-99.9,76,50,37,0.00,40.00,11,4,17,0.00
2012-12-25,32.0,25.9,26.0,29.0,12.3,-99.9,95,74,70,0.00,40.00,12,4,15,0.01
2012-12-26,36.0,24.1,18.0,33.0,6.9,-99.9,93,66,49,0.00,40.00,9,3,17,0.00
2012-12-27,39.0,28.6,29.0,37.0,-71.2,-99.9,100,22,94,0.00,40.00,17,11,32,0.44
2012-12-28,34.0,26.6,27.0,29.0,5.5,-99.9,94,61,60,0.00,40.00,14,8,23,0.00
2012-12-29,30.0,25.0,25.0,29.0,-24.9,-99.9,100,49,73,0.00,40.00,22,5,32,0.01
2012-12-30,28.0,22.4,19.0,27.0,-5.4,-99.9,100,57,51,0.00,40.00,23,14,35,0.00
2012-12-31,34.0,25.1,20.0,24.0,7.3,-99.9,77,59,54,0.00,40.00,14,6,24,0.00
2013-1-1,34.0,25.2,18.0,26.0,2.3,-99.9,76,51,44,0.00,40.00,16,9,28,0.00